NCAR-RAP Real-Time Weather Data

Output produced by METARs form (16 August 2018  19:23 UTC)
found at http://weather.rap.ucar.edu/surface/
 
RJTI 160700Z 21013G23KT 170V270 9999 FEW025 SCT170 BKN/// 30/24 Q1003
RJTI 160600Z 21013KT 160V310 9999 FEW025 BKN/// 30/24 Q1003
RJTI 160500Z 20014G29KT 170V250 9999 FEW025 BKN/// 31/23 Q1004
RJTI 160400Z 21021G32KT 180V250 9999 FEW025 BKN/// 31/23 Q1005
RJTI 160300Z 20018G30KT 160V260 9999 FEW025 SCT150 BKN/// 31/24 Q1005
RJTI 160200Z 20015G25KT 160V260 9999 FEW020 BKN/// 32/24 Q1006
RJTI 160100Z 20018KT 160V240 9999 FEW020 BKN/// 31/25 Q1007
RJTI 160000Z 20018G28KT 170V240 9999 FEW020 BKN/// 30/24 Q1007
RJTI 152330Z 20016G27KT 170V230 9999 FEW020 BKN/// 30/24 Q1007
RJTI 150700Z 19013KT 9999 FEW030 BKN/// 29/26 Q1011
RJTI 150600Z 19013G23KT 9999 FEW030 BKN/// 30/25 Q1012
RJTI 150500Z 19013KT 9999 FEW030 BKN/// 31/26 Q1012
RJTI 150400Z 18013KT 9999 FEW030 BKN/// 31/27 Q1013
RJTI 150300Z 19012KT 160V220 9999 FEW030 BKN/// 31/26 Q1013
RJTI 150200Z 19013KT 160V220 9999 FEW030 BKN/// 31/26 Q1014
RJTI 150100Z 18010KT 150V220 9999 FEW030 BKN/// 30/25 Q1014
RJTI 150000Z 18009KT 150V210 9999 FEW020 BKN/// 30/26 Q1014
RJTI 142330Z 19010KT 140V220 9999 FEW020 BKN/// 30/25 Q1014